createdAt,value
2023-02-01T00:01:28.772Z,67.87
2023-02-01T00:03:57.204Z,67.07
2023-02-01T00:06:25.671Z,62.90
2023-02-01T00:08:55.497Z,59.40
2023-02-01T00:11:25.079Z,62.00
2023-02-01T00:13:54.061Z,67.57
2023-02-01T00:16:25.530Z,62.97
2023-02-01T00:18:58.687Z,61.50
2023-02-01T00:21:27.186Z,63.43
2023-02-01T00:23:55.575Z,67.13
2023-02-01T00:26:29.794Z,61.53
2023-02-01T00:28:58.172Z,57.73
2023-02-01T00:31:29.535Z,64.47
2023-02-01T00:33:58.240Z,66.10
2023-02-01T00:36:26.615Z,62.17
2023-02-01T00:38:54.924Z,62.70
2023-02-01T00:41:24.525Z,58.13
2023-02-01T00:43:53.296Z,66.00
2023-02-01T00:46:22.612Z,62.03
2023-02-01T00:48:52.705Z,57.07
2023-02-01T00:51:23.940Z,62.07
2023-02-01T00:53:52.662Z,65.87
2023-02-01T00:56:21.270Z,60.53
2023-02-01T00:58:49.820Z,67.28
2023-02-01T01:01:20.142Z,64.57
2023-02-01T01:03:51.622Z,58.23
2023-02-01T01:06:24.048Z,54.33
2023-02-01T01:08:54.308Z,64.77
2023-02-01T01:11:24.679Z,62.37
2023-02-01T01:13:55.180Z,62.77
2023-02-01T01:16:25.040Z,63.60
2023-02-01T01:18:53.676Z,66.90
2023-02-01T01:21:23.429Z,61.47
2023-02-01T01:23:51.816Z,60.08
2023-02-01T01:26:23.657Z,58.27
2023-02-01T01:28:52.586Z,56.43
2023-02-01T01:31:22.587Z,53.77
2023-02-01T01:33:52.458Z,60.13
2023-02-01T01:36:22.351Z,57.80
2023-02-01T01:38:51.201Z,53.90
2023-02-01T01:41:22.375Z,52.80
2023-02-01T01:43:56.641Z,58.40
2023-02-01T01:46:26.908Z,50.90
2023-02-01T01:49:02.748Z,55.73
2023-02-01T01:51:36.406Z,61.33
2023-02-01T01:54:09.328Z,54.30
2023-02-01T01:56:37.801Z,60.17
2023-02-01T01:59:07.714Z,60.03
2023-02-01T02:01:36.002Z,52.23
2023-02-01T02:04:04.814Z,53.73
2023-02-01T02:06:46.496Z,48.50
2023-02-01T02:09:14.871Z,47.83
2023-02-01T02:11:43.219Z,49.27
2023-02-01T02:14:13.946Z,57.20
2023-02-01T02:16:58.071Z,53.03
2023-02-01T02:20:14.203Z,62.00
2023-02-01T02:23:30.611Z,54.90
2023-02-01T02:26:23.972Z,54.63
2023-02-01T02:29:25.893Z,52.90
2023-02-01T02:32:23.046Z,58.40
2023-02-01T02:34:58.795Z,54.83
2023-02-01T02:37:40.335Z,54.13
2023-02-01T02:40:17.046Z,52.93
2023-02-01T02:43:10.348Z,49.47
2023-02-01T02:46:02.755Z,57.83
2023-02-01T02:48:39.744Z,51.00
2023-02-01T02:51:32.271Z,53.97
2023-02-01T02:54:23.548Z,52.40
2023-02-01T02:57:10.196Z,58.72
2023-02-01T02:59:57.456Z,51.33
2023-02-01T03:02:45.688Z,50.07
2023-02-01T03:07:57.764Z,43.53
2023-02-01T03:10:35.047Z,45.63
2023-02-01T03:13:06.158Z,45.33
2023-02-01T03:15:41.650Z,45.43
2023-02-01T03:18:17.224Z,43.30
2023-02-01T03:20:49.111Z,50.70
2023-02-01T03:23:22.236Z,41.10
2023-02-01T03:25:52.265Z,41.90
2023-02-01T03:28:22.538Z,42.40
2023-02-01T03:30:51.992Z,37.03
2023-02-01T03:33:23.483Z,41.58
2023-02-01T03:36:02.150Z,42.23
2023-02-01T03:38:35.278Z,40.43
2023-02-01T03:41:13.310Z,35.17
2023-02-01T03:43:50.204Z,34.70
2023-02-01T03:46:27.146Z,33.30
2023-02-01T03:48:56.417Z,35.87
2023-02-01T03:51:25.662Z,36.00
2023-02-01T03:53:56.975Z,33.30
2023-02-01T03:56:29.491Z,35.33
2023-02-01T03:59:01.185Z,31.87
2023-02-01T04:01:31.017Z,27.43
2023-02-01T04:03:59.866Z,34.13
2023-02-01T04:06:28.164Z,32.90
2023-02-01T04:08:57.921Z,31.47
2023-02-01T04:11:28.519Z,32.40
2023-02-01T04:13:57.197Z,36.00
2023-02-01T04:16:25.608Z,35.20
2023-02-01T04:18:53.892Z,34.73
2023-02-01T04:21:22.224Z,34.77
2023-02-01T04:23:50.698Z,34.57
2023-02-01T04:26:20.859Z,31.87
2023-02-01T04:28:49.799Z,34.00
2023-02-01T04:31:18.959Z,33.57
2023-02-01T04:33:47.321Z,34.13
2023-02-01T04:36:15.584Z,33.37
2023-02-01T04:38:43.905Z,33.50
2023-02-01T04:41:12.154Z,30.97
2023-02-01T04:43:41.844Z,33.20
2023-02-01T04:46:10.377Z,29.10
2023-02-01T04:48:38.623Z,29.77
2023-02-01T04:51:07.222Z,31.93
2023-02-01T04:53:35.601Z,31.13
2023-02-01T04:56:04.085Z,30.03
2023-02-01T04:58:32.446Z,27.33
2023-02-01T05:01:05.667Z,28.63
2023-02-01T05:03:34.054Z,30.03
2023-02-01T05:06:05.131Z,31.13
2023-02-01T05:08:33.899Z,30.70
2023-02-01T05:11:03.604Z,25.93
2023-02-01T05:13:49.356Z,24.80
2023-02-01T05:16:19.164Z,27.83
2023-02-01T05:18:47.668Z,25.00
2023-02-01T05:21:15.933Z,25.57
2023-02-01T05:24:01.804Z,23.43
2023-02-01T05:26:35.972Z,27.70
2023-02-01T05:29:04.673Z,20.40
2023-02-01T05:31:34.442Z,20.97
2023-02-01T05:34:02.925Z,21.13
2023-02-01T05:36:31.235Z,25.88
2023-02-01T05:38:59.641Z,25.77
2023-02-01T05:41:27.947Z,25.60
2023-02-01T05:43:56.399Z,24.77
2023-02-01T05:46:24.797Z,25.20
2023-02-01T05:48:54.460Z,18.40
2023-02-01T05:51:22.787Z,26.63
2023-02-01T05:53:51.482Z,21.77
2023-02-01T05:56:19.946Z,25.63
2023-02-01T05:58:48.355Z,20.50
2023-02-01T06:01:16.605Z,24.13
2023-02-01T06:03:45.043Z,19.90
2023-02-01T06:06:14.837Z,27.40
2023-02-01T06:08:43.144Z,20.67
2023-02-01T06:11:13.530Z,22.70
2023-02-01T06:13:48.537Z,22.20
2023-02-01T06:16:25.753Z,22.00
2023-02-01T06:18:54.937Z,18.30
2023-02-01T06:21:25.595Z,19.47
2023-02-01T06:23:55.062Z,14.40
2023-02-01T06:26:23.441Z,17.67
2023-02-01T06:28:52.630Z,15.03
2023-02-01T06:31:20.982Z,13.20
2023-02-01T06:33:49.949Z,15.87
2023-02-01T06:36:19.764Z,17.73
2023-02-01T06:38:49.728Z,17.93
2023-02-01T06:41:18.513Z,14.87
2023-02-01T06:43:47.272Z,13.43
2023-02-01T06:46:16.134Z,16.27
2023-02-01T06:48:44.434Z,14.23
2023-02-01T06:51:30.756Z,13.17
2023-02-01T06:54:03.638Z,14.63
2023-02-01T06:56:32.488Z,16.93
2023-02-01T06:59:01.539Z,15.43
2023-02-01T07:01:29.904Z,13.60
2023-02-01T07:03:58.199Z,28.93
2023-02-01T07:06:26.599Z,19.10
2023-02-01T07:08:56.813Z,22.13
2023-02-01T07:11:28.444Z,18.33
2023-02-01T07:13:57.207Z,15.63
2023-02-01T07:16:25.655Z,17.67
2023-02-01T07:18:55.003Z,20.60
2023-02-01T07:21:23.463Z,14.93
2023-02-01T07:23:51.747Z,22.23
2023-02-01T07:26:20.133Z,16.43
2023-02-01T07:28:50.151Z,16.17
2023-02-01T07:31:21.988Z,17.17
2023-02-01T07:33:52.528Z,19.17
2023-02-01T07:36:21.676Z,17.93
2023-02-01T07:38:56.173Z,15.70
2023-02-01T07:41:25.520Z,18.77
2023-02-01T07:43:59.581Z,15.77
2023-02-01T07:46:27.884Z,20.33
2023-02-01T07:48:56.238Z,16.83
2023-02-01T07:51:24.652Z,17.07
2023-02-01T07:53:55.377Z,13.00
2023-02-01T07:56:24.781Z,15.90
2023-02-01T07:58:57.175Z,14.70
2023-02-01T08:01:26.252Z,17.07
2023-02-01T08:03:56.544Z,13.53
2023-02-01T08:06:26.190Z,14.40
2023-02-01T08:08:55.377Z,11.77
2023-02-01T08:11:25.233Z,15.50
2023-02-01T08:13:55.471Z,12.03
2023-02-01T08:16:25.527Z,12.63
2023-02-01T08:18:55.189Z,11.67
2023-02-01T08:21:25.241Z,11.20
2023-02-01T08:23:53.859Z,9.70
2023-02-01T08:26:24.646Z,12.33
2023-02-01T08:28:56.745Z,10.23
2023-02-01T08:31:26.478Z,12.07
2023-02-01T08:33:59.201Z,13.43
2023-02-01T08:36:29.899Z,11.47
2023-02-01T08:38:58.139Z,11.13
2023-02-01T08:42:06.422Z,11.70
2023-02-01T08:44:36.154Z,13.38
2023-02-01T08:47:05.024Z,13.20
2023-02-01T08:49:33.446Z,17.87
2023-02-01T08:52:07.293Z,15.73
2023-02-01T08:54:43.058Z,15.50
2023-02-01T08:57:20.487Z,16.20
2023-02-01T08:59:50.304Z,15.80
2023-02-01T09:02:19.760Z,15.73
2023-02-01T09:04:48.073Z,15.30
2023-02-01T09:07:17.838Z,15.77
2023-02-01T09:09:46.516Z,14.03
2023-02-01T09:12:14.862Z,15.37
2023-02-01T09:14:43.255Z,13.20
2023-02-01T09:17:14.474Z,12.03
2023-02-01T09:19:43.234Z,15.30
2023-02-01T09:22:11.591Z,14.20
2023-02-01T09:24:39.929Z,10.50
2023-02-01T09:27:08.310Z,11.67
2023-02-01T09:29:36.691Z,13.33
2023-02-01T09:32:05.874Z,10.40
2023-02-01T09:34:48.114Z,13.47
2023-02-01T09:37:16.548Z,13.43
2023-02-01T09:39:45.064Z,13.77
2023-02-01T09:42:30.914Z,14.67
2023-02-01T09:45:15.737Z,12.50
2023-02-01T09:47:51.251Z,14.33
2023-02-01T09:50:25.533Z,14.33
2023-02-01T09:52:59.582Z,12.67
2023-02-01T09:55:37.951Z,13.90
2023-02-01T09:58:36.842Z,13.90
2023-02-01T10:02:02.674Z,12.80
2023-02-01T10:04:31.235Z,12.37
2023-02-01T10:07:11.779Z,12.87
2023-02-01T10:10:00.759Z,13.80
2023-02-01T10:12:51.754Z,12.30
2023-02-01T10:15:42.477Z,14.00
2023-02-01T10:18:26.111Z,17.43
2023-02-01T10:21:04.498Z,10.50
2023-02-01T10:24:06.215Z,10.17
2023-02-01T10:26:49.969Z,12.47
2023-02-01T10:29:21.133Z,14.50
2023-02-01T10:31:49.727Z,15.53
2023-02-01T10:34:23.273Z,12.87
2023-02-01T10:37:02.011Z,14.47
2023-02-01T10:39:31.681Z,14.80
2023-02-01T10:42:00.003Z,13.60
2023-02-01T10:44:30.818Z,11.20
2023-02-01T10:46:59.335Z,9.80
2023-02-01T10:49:35.667Z,9.50
2023-02-01T10:52:13.627Z,13.17
2023-02-01T10:54:43.572Z,10.50
2023-02-01T10:57:13.241Z,13.43
2023-02-01T10:59:41.508Z,10.57
2023-02-01T11:02:22.522Z,9.67
2023-02-01T11:04:50.916Z,9.20
2023-02-01T11:07:25.107Z,9.60
2023-02-01T11:09:59.001Z,9.30
2023-02-01T11:12:39.306Z,8.57
2023-02-01T11:15:46.071Z,9.23
2023-02-01T11:18:59.764Z,7.80
2023-02-01T11:21:28.641Z,8.13
2023-02-01T11:23:57.563Z,10.00
2023-02-01T11:26:28.909Z,8.20
2023-02-01T11:29:00.736Z,10.33
2023-02-01T11:31:30.468Z,7.07
2023-02-01T11:34:02.765Z,6.63
2023-02-01T11:36:34.627Z,6.90
2023-02-01T11:39:28.201Z,6.47
2023-02-01T11:42:05.635Z,8.67
2023-02-01T11:44:37.466Z,8.13
2023-02-01T11:47:27.745Z,8.57
2023-02-01T11:49:57.890Z,6.50
2023-02-01T11:52:54.403Z,7.23
2023-02-01T11:55:39.631Z,8.87
2023-02-01T11:58:43.336Z,8.80
2023-02-01T12:01:32.637Z,9.87
2023-02-01T12:04:24.009Z,9.90
2023-02-01T12:06:55.801Z,9.20
2023-02-01T12:09:36.508Z,9.13
2023-02-01T12:12:15.320Z,7.23
2023-02-01T12:14:58.796Z,9.50
2023-02-01T12:17:55.735Z,7.97
2023-02-01T12:20:35.231Z,7.63
2023-02-01T12:23:17.472Z,8.83
2023-02-01T12:26:02.674Z,8.47
2023-02-01T12:28:57.724Z,8.43
2023-02-01T12:31:53.818Z,10.30
2023-02-01T12:34:44.972Z,7.80
2023-02-01T12:37:23.030Z,8.13
2023-02-01T12:40:02.242Z,9.43
2023-02-01T12:42:38.226Z,10.00
2023-02-01T12:45:15.720Z,9.07
2023-02-01T12:47:49.646Z,13.10
2023-02-01T12:50:23.221Z,7.23
2023-02-01T12:52:53.851Z,7.83
2023-02-01T12:55:26.494Z,8.97
2023-02-01T12:57:58.167Z,7.13
2023-02-01T13:00:34.820Z,5.70
2023-02-01T13:03:14.336Z,6.00
2023-02-01T13:06:00.143Z,8.33
2023-02-01T13:08:46.900Z,6.00
2023-02-01T13:11:20.390Z,6.63
2023-02-01T13:13:58.584Z,5.70
2023-02-01T13:16:31.113Z,5.43
2023-02-01T13:19:07.656Z,7.57
2023-02-01T13:21:41.008Z,5.53
2023-02-01T13:24:22.532Z,7.83
2023-02-01T13:26:50.904Z,5.47
2023-02-01T13:29:22.012Z,4.80
2023-02-01T13:32:18.206Z,4.83
2023-02-01T13:35:15.774Z,6.10
2023-02-01T13:38:02.918Z,4.18
2023-02-01T13:40:39.979Z,5.20
2023-02-01T13:43:14.550Z,6.90
2023-02-01T13:45:48.727Z,5.85
2023-02-01T13:48:29.153Z,6.22
2023-02-01T13:51:01.142Z,4.38
2023-02-01T13:53:32.823Z,4.75
2023-02-01T13:56:03.729Z,7.25
2023-02-01T13:58:35.186Z,3.63
2023-02-01T14:01:36.197Z,7.80
2023-02-01T14:04:07.358Z,5.32
2023-02-01T14:06:43.147Z,8.23
2023-02-01T14:09:21.267Z,5.57
2023-02-01T14:11:51.596Z,6.72
2023-02-01T14:14:53.269Z,5.68
2023-02-01T14:17:40.073Z,7.82
2023-02-01T14:20:46.700Z,5.28
2023-02-01T14:23:40.674Z,4.47
2023-02-01T14:26:16.138Z,4.43
2023-02-01T14:29:04.341Z,6.97
2023-02-01T14:31:53.348Z,4.82
2023-02-01T14:34:27.042Z,6.20
2023-02-01T14:37:00.348Z,6.32
2023-02-01T14:39:38.521Z,8.75
2023-02-01T14:42:20.351Z,5.10
2023-02-01T14:44:59.016Z,6.68
2023-02-01T14:47:31.929Z,6.33
2023-02-01T14:50:36.813Z,7.30
2023-02-01T14:53:21.468Z,8.33
2023-02-01T14:55:54.114Z,9.57
2023-02-01T14:58:33.320Z,8.03
2023-02-01T15:01:03.954Z,6.27
2023-02-01T15:03:55.915Z,7.87
2023-02-01T15:06:29.153Z,5.67
2023-02-01T15:09:01.662Z,6.00
2023-02-01T15:11:31.657Z,8.33
2023-02-01T15:14:01.596Z,7.93
2023-02-01T15:16:30.079Z,7.70
2023-02-01T15:19:12.551Z,6.80
2023-02-01T15:21:49.468Z,5.77
2023-02-01T15:24:22.765Z,6.67
2023-02-01T15:26:53.363Z,10.43
2023-02-01T15:29:22.894Z,5.80
2023-02-01T15:31:53.376Z,10.67
2023-02-01T15:34:22.495Z,7.13
2023-02-01T15:37:02.705Z,10.83
2023-02-01T15:39:32.506Z,4.77
2023-02-01T15:42:11.461Z,7.43
2023-02-01T15:44:42.518Z,9.53
2023-02-01T15:47:17.107Z,5.23
2023-02-01T15:49:49.200Z,9.37
2023-02-01T15:52:26.974Z,9.43
2023-02-01T15:54:59.144Z,9.43
2023-02-01T15:57:32.696Z,8.40
2023-02-01T16:00:04.395Z,7.03
2023-02-01T16:02:39.069Z,5.90
2023-02-01T16:05:27.571Z,9.40
2023-02-01T16:08:05.101Z,10.97
2023-02-01T16:10:34.373Z,5.93
2023-02-01T16:13:04.109Z,8.87
2023-02-01T16:15:33.422Z,7.10
2023-02-01T16:18:01.725Z,9.43
2023-02-01T16:20:30.767Z,10.57
2023-02-01T16:22:59.120Z,8.73
2023-02-01T16:25:27.438Z,9.90
2023-02-01T16:27:55.835Z,8.07
2023-02-01T16:30:25.913Z,10.97
2023-02-01T16:32:56.377Z,14.00
2023-02-01T16:35:27.103Z,10.20
2023-02-01T16:37:56.064Z,10.63
2023-02-01T16:40:24.370Z,11.33
2023-02-01T16:42:56.219Z,11.67
2023-02-01T16:45:26.359Z,10.23
2023-02-01T16:47:57.237Z,15.55
2023-02-01T16:50:28.659Z,8.53
2023-02-01T16:52:57.044Z,8.70
2023-02-01T16:55:26.375Z,9.40
2023-02-01T16:57:54.891Z,12.80
2023-02-01T17:00:25.349Z,9.63
2023-02-01T17:02:55.777Z,10.37
2023-02-01T17:05:24.481Z,9.43
2023-02-01T17:07:53.861Z,13.53
2023-02-01T17:10:33.362Z,13.03
2023-02-01T17:13:02.284Z,10.90
2023-02-01T17:15:35.688Z,13.50
2023-02-01T17:18:05.763Z,11.20
2023-02-01T17:20:35.144Z,11.57
2023-02-01T17:23:04.579Z,14.23
2023-02-01T17:25:33.416Z,13.00
2023-02-01T17:28:01.992Z,10.20
2023-02-01T17:30:32.015Z,9.03
2023-02-01T17:33:05.470Z,7.87
2023-02-01T17:35:40.002Z,8.30
2023-02-01T17:38:13.198Z,9.32
2023-02-01T17:40:41.607Z,8.70
2023-02-01T17:43:14.596Z,10.20
2023-02-01T17:45:51.728Z,12.23
2023-02-01T17:48:20.755Z,8.53
2023-02-01T17:50:54.727Z,9.97
2023-02-01T17:53:24.669Z,10.43
2023-02-01T17:55:53.799Z,10.73
2023-02-01T17:58:22.864Z,9.70
2023-02-01T18:00:51.665Z,11.57
2023-02-01T18:03:25.266Z,12.47
2023-02-01T18:05:57.192Z,16.67
2023-02-01T18:08:27.545Z,12.77
2023-02-01T18:10:59.861Z,13.07
2023-02-01T18:13:28.449Z,11.40
2023-02-01T18:16:02.189Z,12.27
2023-02-01T18:18:33.441Z,12.73
2023-02-01T18:21:03.222Z,10.40
2023-02-01T18:23:31.805Z,11.53
2023-02-01T18:26:00.282Z,13.20
2023-02-01T18:28:46.461Z,13.60
2023-02-01T18:31:24.018Z,11.20
2023-02-01T18:33:53.042Z,11.47
2023-02-01T18:36:23.198Z,19.73
2023-02-01T18:38:51.560Z,14.23
2023-02-01T18:41:21.717Z,15.83
2023-02-01T18:43:50.980Z,12.63
2023-02-01T18:46:22.365Z,10.73
2023-02-01T18:48:50.703Z,11.50
2023-02-01T18:51:20.678Z,16.57
2023-02-01T18:53:51.653Z,9.63
2023-02-01T18:56:20.278Z,8.10
2023-02-01T18:58:49.020Z,10.65
2023-02-01T19:01:19.615Z,9.87
2023-02-01T19:03:52.975Z,10.57
2023-02-01T19:06:29.889Z,11.33
2023-02-01T19:08:59.585Z,10.10
2023-02-01T19:11:27.981Z,17.17
2023-02-01T19:13:56.541Z,25.83
2023-02-01T19:16:24.842Z,32.17
2023-02-01T19:18:53.282Z,31.80
2023-02-01T19:21:21.626Z,36.13
2023-02-01T19:23:49.904Z,42.45
2023-02-01T19:26:20.459Z,55.10
2023-02-01T19:28:49.111Z,56.53
2023-02-01T19:31:18.815Z,54.13
2023-02-01T19:33:47.215Z,46.33
2023-02-01T19:36:15.613Z,55.80
2023-02-01T19:38:43.963Z,50.43
2023-02-01T19:41:12.282Z,48.90
2023-02-01T19:43:42.006Z,47.30
2023-02-01T19:46:10.369Z,48.97
2023-02-01T19:48:38.775Z,38.57
2023-02-01T19:51:08.380Z,48.30
2023-02-01T19:53:36.680Z,40.70
2023-02-01T19:56:05.383Z,37.07
2023-02-01T19:58:33.754Z,33.85
2023-02-01T20:01:03.368Z,16.67
2023-02-01T20:03:31.692Z,25.50
2023-02-01T20:06:00.503Z,30.17
2023-02-01T20:08:28.890Z,21.20
2023-02-01T20:10:57.716Z,11.33
2023-02-01T20:13:26.113Z,17.23
2023-02-01T20:15:58.567Z,13.83
2023-02-01T20:18:28.869Z,11.40
2023-02-01T20:21:00.213Z,13.77
2023-02-01T20:23:29.122Z,14.40
2023-02-01T20:26:03.223Z,11.40
2023-02-01T20:28:31.614Z,9.53
2023-02-01T20:31:00.105Z,11.87
2023-02-01T20:33:30.753Z,10.90
2023-02-01T20:35:59.218Z,13.80
2023-02-01T20:38:27.632Z,10.03
2023-02-01T20:41:03.574Z,15.00
2023-02-01T20:43:32.006Z,10.13
2023-02-01T20:46:00.353Z,11.50
2023-02-01T20:48:30.658Z,9.33
2023-02-01T20:51:00.003Z,12.20
2023-02-01T20:53:28.361Z,12.38
2023-02-01T20:55:58.351Z,13.13
2023-02-01T20:58:26.849Z,11.90
2023-02-01T21:00:55.402Z,11.87
2023-02-01T21:03:24.096Z,14.00
2023-02-01T21:05:55.517Z,9.97
2023-02-01T21:08:24.054Z,11.10
2023-02-01T21:10:59.597Z,12.13
2023-02-01T21:13:30.355Z,11.03
2023-02-01T21:15:59.400Z,8.67
2023-02-01T21:18:27.676Z,12.13
2023-02-01T21:21:00.868Z,13.23
2023-02-01T21:23:29.999Z,11.73
2023-02-01T21:26:02.819Z,12.50
2023-02-01T21:28:31.106Z,12.37
2023-02-01T21:30:59.503Z,13.60
2023-02-01T21:33:27.778Z,10.43
2023-02-01T21:35:57.475Z,11.87
2023-02-01T21:38:26.121Z,11.57
2023-02-01T21:41:08.280Z,12.33
2023-02-01T21:43:36.587Z,11.17
2023-02-01T21:46:04.844Z,11.93
2023-02-01T21:49:03.747Z,12.73
2023-02-01T21:51:22.979Z,9.67
2023-02-01T21:53:51.347Z,12.00
2023-02-01T21:56:19.890Z,11.87
2023-02-01T21:58:48.163Z,13.93
2023-02-01T22:01:16.447Z,11.50
2023-02-01T22:03:44.739Z,10.43
2023-02-01T22:06:25.292Z,12.43
2023-02-01T22:08:59.740Z,13.87
2023-02-01T22:11:28.523Z,13.20
2023-02-01T22:13:56.935Z,10.47
2023-02-01T22:16:25.446Z,14.50
2023-02-01T22:18:54.564Z,9.93
2023-02-01T22:21:24.127Z,9.33
2023-02-01T22:23:55.184Z,12.30
2023-02-01T22:26:24.785Z,11.33
2023-02-01T22:28:53.864Z,10.97
2023-02-01T22:31:23.130Z,11.17
2023-02-01T22:33:51.961Z,10.77
2023-02-01T22:36:20.885Z,11.47
2023-02-01T22:38:49.564Z,10.10
2023-02-01T22:41:20.273Z,11.50
2023-02-01T22:43:48.803Z,9.97
2023-02-01T22:46:19.102Z,11.55
2023-02-01T22:48:48.576Z,8.33
2023-02-01T22:51:20.375Z,9.57
2023-02-01T22:53:56.910Z,13.23
2023-02-01T22:56:28.179Z,8.83
2023-02-01T22:58:57.592Z,10.53
2023-02-01T23:01:25.970Z,12.17
2023-02-01T23:03:58.679Z,11.43
2023-02-01T23:06:29.433Z,11.80
2023-02-01T23:09:00.014Z,12.63
2023-02-01T23:11:30.524Z,11.67
2023-02-01T23:14:00.575Z,10.60
2023-02-01T23:16:28.877Z,11.03
2023-02-01T23:18:57.379Z,10.30
2023-02-01T23:21:25.843Z,10.57
2023-02-01T23:23:55.482Z,10.93
2023-02-01T23:26:25.457Z,10.60
2023-02-01T23:28:56.065Z,10.33
2023-02-01T23:31:26.023Z,9.50
2023-02-01T23:33:56.675Z,10.87
2023-02-01T23:36:27.006Z,13.23
2023-02-01T23:38:56.029Z,14.70
2023-02-01T23:41:27.484Z,10.83
2023-02-01T23:44:00.192Z,9.87
2023-02-01T23:46:32.527Z,10.60
2023-02-01T23:49:01.894Z,13.70
2023-02-01T23:51:31.310Z,13.10
2023-02-01T23:54:00.493Z,14.17
2023-02-01T23:56:33.384Z,10.13
2023-02-01T23:59:04.939Z,12.37
